createdAt,value
2024-05-09T00:00:43.849Z,2.97
2024-05-09T00:03:31.456Z,2.78
2024-05-09T00:05:58.538Z,2.58
2024-05-09T00:08:25.989Z,2.35
2024-05-09T00:10:53.394Z,2.50
2024-05-09T00:13:20.899Z,3.20
2024-05-09T00:15:47.878Z,2.95
2024-05-09T00:18:15.433Z,2.40
2024-05-09T00:20:42.581Z,2.63
2024-05-09T00:23:16.084Z,2.80
2024-05-09T00:25:43.700Z,2.83
2024-05-09T00:28:12.390Z,2.63
2024-05-09T00:30:39.652Z,2.63
2024-05-09T00:33:08.873Z,2.88
2024-05-09T00:35:37.348Z,2.50
2024-05-09T00:38:05.303Z,1.98
2024-05-09T00:40:43.427Z,2.88
2024-05-09T00:43:12.399Z,2.30
2024-05-09T00:45:40.397Z,2.42
2024-05-09T00:48:09.526Z,2.22
2024-05-09T00:50:39.127Z,2.67
2024-05-09T00:53:06.950Z,2.25
2024-05-09T00:55:37.160Z,2.65
2024-05-09T00:58:04.920Z,2.30
2024-05-09T01:00:38.437Z,2.05
2024-05-09T01:03:10.521Z,2.35
2024-05-09T01:05:39.902Z,2.13
2024-05-09T01:08:08.239Z,3.13
2024-05-09T01:10:36.596Z,2.25
2024-05-09T01:13:04.954Z,2.22
2024-05-09T01:15:32.177Z,2.55
2024-05-09T01:18:07.439Z,2.33
2024-05-09T01:23:08.153Z,2.80
2024-05-09T01:25:35.718Z,2.53
2024-05-09T01:28:03.165Z,2.22
2024-05-09T01:30:34.871Z,2.22
2024-05-09T01:33:09.445Z,2.47
2024-05-09T01:35:39.232Z,2.60
2024-05-09T01:38:07.835Z,2.33
2024-05-09T01:40:38.663Z,2.25
2024-05-09T01:43:09.091Z,2.75
2024-05-09T01:45:37.176Z,2.60
2024-05-09T01:48:05.168Z,2.83
2024-05-09T01:50:38.561Z,2.78
2024-05-09T01:53:10.101Z,2.63
2024-05-09T01:55:37.472Z,2.55
2024-05-09T01:58:05.123Z,2.08
2024-05-09T02:00:38.896Z,2.22
2024-05-09T02:03:15.899Z,2.72
2024-05-09T02:05:48.606Z,2.83
2024-05-09T02:08:18.260Z,2.40
2024-05-09T02:10:46.015Z,2.95
2024-05-09T02:13:13.651Z,2.30
2024-05-09T02:15:40.684Z,2.13
2024-05-09T02:18:08.885Z,2.63
2024-05-09T02:20:38.631Z,2.47
2024-05-09T02:23:06.788Z,2.25
2024-05-09T02:25:34.580Z,2.53
2024-05-09T02:28:02.209Z,2.28
2024-05-09T02:30:38.350Z,2.58
2024-05-09T02:33:13.445Z,2.88
2024-05-09T02:35:43.093Z,2.60
2024-05-09T02:38:11.478Z,2.33
2024-05-09T02:40:39.903Z,2.17
2024-05-09T02:43:08.880Z,2.33
2024-05-09T02:45:37.228Z,2.50
2024-05-09T02:48:05.360Z,2.25
2024-05-09T02:50:37.992Z,2.70
2024-05-09T02:53:08.252Z,1.98
2024-05-09T02:55:35.767Z,2.45
2024-05-09T02:58:03.205Z,2.63
2024-05-09T03:00:38.277Z,2.65
2024-05-09T03:03:10.160Z,2.63
2024-05-09T03:05:39.774Z,2.58
2024-05-09T03:08:07.603Z,1.90
2024-05-09T03:10:36.871Z,2.80
2024-05-09T03:13:13.531Z,1.88
2024-05-09T03:15:42.077Z,2.47
2024-05-09T03:18:10.060Z,2.78
2024-05-09T03:20:38.392Z,2.30
2024-05-09T03:23:08.127Z,2.50
2024-05-09T03:25:36.167Z,3.08
2024-05-09T03:28:03.877Z,2.67
2024-05-09T03:30:39.663Z,2.08
2024-05-09T03:33:12.070Z,2.45
2024-05-09T03:35:39.854Z,2.30
2024-05-09T03:38:07.354Z,2.58
2024-05-09T03:40:34.329Z,1.90
2024-05-09T03:43:01.739Z,2.22
2024-05-09T03:45:28.784Z,2.25
2024-05-09T03:47:56.294Z,2.50
2024-05-09T03:50:30.079Z,2.92
2024-05-09T03:53:02.076Z,2.38
2024-05-09T03:55:29.273Z,2.67
2024-05-09T03:57:56.898Z,3.00
2024-05-09T04:00:31.298Z,2.13
2024-05-09T04:03:07.598Z,3.00
2024-05-09T04:05:38.160Z,3.30
2024-05-09T04:08:06.181Z,2.60
2024-05-09T04:10:34.870Z,2.55
2024-05-09T04:13:03.875Z,3.10
2024-05-09T04:15:31.390Z,2.80
2024-05-09T04:17:59.352Z,2.70
2024-05-09T04:20:37.361Z,2.28
2024-05-09T04:23:08.787Z,2.50
2024-05-09T04:25:36.597Z,2.65
2024-05-09T04:28:04.255Z,3.28
2024-05-09T04:30:37.871Z,2.20
2024-05-09T04:33:10.460Z,2.83
2024-05-09T04:35:39.654Z,3.08
2024-05-09T04:38:08.441Z,3.08
2024-05-09T04:40:37.123Z,2.53
2024-05-09T04:43:06.222Z,3.25
2024-05-09T04:45:33.558Z,3.28
2024-05-09T04:48:01.724Z,3.88
2024-05-09T04:50:35.695Z,2.60
2024-05-09T04:53:07.639Z,3.85
2024-05-09T04:55:36.170Z,3.03
2024-05-09T04:58:03.749Z,3.60
2024-05-09T05:00:36.386Z,3.40
2024-05-09T05:03:10.856Z,2.90
2024-05-09T05:05:43.615Z,3.87
2024-05-09T05:08:15.868Z,2.92
2024-05-09T05:10:43.769Z,3.15
2024-05-09T05:13:22.455Z,3.10
2024-05-09T05:15:57.273Z,3.38
2024-05-09T05:18:26.571Z,3.50
2024-05-09T05:20:58.142Z,2.95
2024-05-09T05:23:25.878Z,2.75
2024-05-09T05:25:53.560Z,2.97
2024-05-09T05:28:22.050Z,3.35
2024-05-09T05:30:49.298Z,3.13
2024-05-09T05:33:20.073Z,2.90
2024-05-09T05:35:47.599Z,3.45
2024-05-09T05:38:15.244Z,3.00
2024-05-09T05:40:42.278Z,2.97
2024-05-09T05:43:15.588Z,3.22
2024-05-09T05:45:42.600Z,3.70
2024-05-09T05:48:10.234Z,3.58
2024-05-09T05:50:38.492Z,3.97
2024-05-09T05:53:07.542Z,4.15
2024-05-09T05:55:35.718Z,3.80
2024-05-09T05:58:03.143Z,3.60
2024-05-09T06:00:37.667Z,3.35
2024-05-09T06:03:11.793Z,3.67
2024-05-09T06:05:46.893Z,3.70
2024-05-09T06:08:14.733Z,3.47
2024-05-09T06:10:42.538Z,3.88
2024-05-09T06:13:13.521Z,3.00
2024-05-09T06:15:41.580Z,3.40
2024-05-09T06:18:10.750Z,3.05
2024-05-09T06:20:40.274Z,3.70
2024-05-09T06:23:09.701Z,3.88
2024-05-09T06:25:37.460Z,3.72
2024-05-09T06:28:05.340Z,3.35
2024-05-09T06:30:40.608Z,3.05
2024-05-09T06:33:11.322Z,3.20
2024-05-09T06:35:40.424Z,3.20
2024-05-09T06:38:11.591Z,3.22
2024-05-09T06:40:41.326Z,3.00
2024-05-09T06:43:14.750Z,2.95
2024-05-09T06:45:42.757Z,3.08
2024-05-09T06:48:10.623Z,3.58
2024-05-09T06:50:39.526Z,3.30
2024-05-09T06:53:08.310Z,2.80
2024-05-09T06:55:36.088Z,3.55
2024-05-09T06:58:05.543Z,2.95
2024-05-09T07:00:38.792Z,3.33
2024-05-09T07:03:14.696Z,3.38
2024-05-09T07:05:44.424Z,2.80
2024-05-09T07:08:12.295Z,3.00
2024-05-09T07:10:39.455Z,2.63
2024-05-09T07:13:13.316Z,2.85
2024-05-09T07:15:41.215Z,2.90
2024-05-09T07:18:12.148Z,2.75
2024-05-09T07:20:40.264Z,2.92
2024-05-09T07:23:11.827Z,3.10
2024-05-09T07:25:39.959Z,3.40
2024-05-09T07:28:17.736Z,2.90
2024-05-09T07:30:44.994Z,3.30
2024-05-09T07:33:16.770Z,3.17
2024-05-09T07:35:43.947Z,3.42
2024-05-09T07:38:11.448Z,3.08
2024-05-09T07:40:39.444Z,3.20
2024-05-09T07:43:13.386Z,2.92
2024-05-09T07:45:49.915Z,3.17
2024-05-09T07:53:39.462Z,3.20
2024-05-09T07:56:10.415Z,3.55
2024-05-09T07:58:39.286Z,3.15
2024-05-09T08:01:06.607Z,2.80
2024-05-09T08:03:34.446Z,3.17
2024-05-09T08:06:01.692Z,2.97
2024-05-09T08:08:29.346Z,3.53
2024-05-09T08:10:56.364Z,2.95
2024-05-09T08:13:23.847Z,2.97
2024-05-09T08:15:51.904Z,2.58
2024-05-09T08:18:19.580Z,2.90
2024-05-09T08:20:48.165Z,3.25
2024-05-09T08:23:16.928Z,2.83
2024-05-09T08:25:44.240Z,2.85
2024-05-09T08:28:11.917Z,2.53
2024-05-09T08:30:39.245Z,3.13
2024-05-09T08:33:07.643Z,2.90
2024-05-09T08:35:35.488Z,2.67
2024-05-09T08:38:03.733Z,2.90
2024-05-09T08:40:35.727Z,2.53
2024-05-09T08:43:12.723Z,2.92
2024-05-09T08:45:43.877Z,2.80
2024-05-09T08:48:14.735Z,3.22
2024-05-09T08:50:43.197Z,2.60
2024-05-09T08:53:10.833Z,3.20
2024-05-09T08:55:41.590Z,2.45
2024-05-09T08:58:12.850Z,3.08
2024-05-09T09:00:39.971Z,2.53
2024-05-09T09:03:08.405Z,3.08
2024-05-09T09:05:35.656Z,3.28
2024-05-09T09:08:04.732Z,2.60
2024-05-09T09:10:33.119Z,2.65
2024-05-09T09:13:01.653Z,2.97
2024-05-09T09:15:28.770Z,2.85
2024-05-09T09:17:57.777Z,2.67
2024-05-09T09:20:35.890Z,2.92
2024-05-09T09:23:04.991Z,2.65
2024-05-09T09:25:32.271Z,2.65
2024-05-09T09:27:59.872Z,2.35
2024-05-09T09:30:36.602Z,2.80
2024-05-09T09:33:06.615Z,3.20
2024-05-09T09:35:34.332Z,2.72
2024-05-09T09:38:06.055Z,2.40
2024-05-09T09:40:40.804Z,2.28
2024-05-09T09:43:14.572Z,2.55
2024-05-09T09:45:42.204Z,2.33
2024-05-09T09:48:09.712Z,2.50
2024-05-09T09:50:36.825Z,2.35
2024-05-09T09:53:04.316Z,2.25
2024-05-09T09:55:32.730Z,2.80
2024-05-09T09:58:00.208Z,2.53
2024-05-09T10:00:32.526Z,2.33
2024-05-09T10:03:01.892Z,2.60
2024-05-09T10:05:29.557Z,2.63
2024-05-09T10:07:57.226Z,2.90
2024-05-09T10:10:31.964Z,2.97
2024-05-09T10:13:07.118Z,2.13
2024-05-09T10:15:48.357Z,2.15
2024-05-09T10:18:16.427Z,2.75
2024-05-09T10:20:44.511Z,2.50
2024-05-09T10:23:24.939Z,2.90
2024-05-09T10:26:18.025Z,2.58
2024-05-09T10:28:45.546Z,2.58
2024-05-09T10:31:14.019Z,1.95
2024-05-09T10:33:50.219Z,2.40
2024-05-09T10:36:22.764Z,2.30
2024-05-09T10:38:50.731Z,2.50
2024-05-09T10:41:18.118Z,2.72
2024-05-09T10:43:45.636Z,1.63
2024-05-09T10:46:12.860Z,2.58
2024-05-09T10:48:42.260Z,2.30
2024-05-09T10:51:09.511Z,2.53
2024-05-09T10:53:41.365Z,1.80
2024-05-09T10:56:08.422Z,1.92
2024-05-09T10:58:35.882Z,2.30
2024-05-09T11:01:06.411Z,2.20
2024-05-09T11:03:35.302Z,2.45
2024-05-09T11:06:02.955Z,1.70
2024-05-09T11:08:31.510Z,1.95
2024-05-09T11:10:59.836Z,2.00
2024-05-09T11:13:31.427Z,2.22
2024-05-09T11:15:59.209Z,1.60
2024-05-09T11:18:35.117Z,1.98
2024-05-09T11:21:14.308Z,1.58
2024-05-09T11:23:41.900Z,1.80
2024-05-09T11:26:10.503Z,1.92
2024-05-09T11:28:38.002Z,2.00
2024-05-09T11:31:07.722Z,1.95
2024-05-09T11:33:43.284Z,1.60
2024-05-09T11:38:38.149Z,2.45
2024-05-09T11:41:05.404Z,2.03
2024-05-09T11:43:33.189Z,1.83
2024-05-09T11:46:00.932Z,1.90
2024-05-09T11:48:28.662Z,2.20
2024-05-09T11:50:56.398Z,2.03
2024-05-09T11:53:24.016Z,1.58
2024-05-09T11:55:51.012Z,1.80
2024-05-09T11:58:19.175Z,1.60
2024-05-09T12:00:47.134Z,1.60
2024-05-09T12:03:15.027Z,1.58
2024-05-09T12:05:42.434Z,1.42
2024-05-09T12:08:10.076Z,1.90
2024-05-09T12:10:37.525Z,1.52
2024-05-09T12:13:06.817Z,2.10
2024-05-09T12:15:38.462Z,1.40
2024-05-09T12:18:07.753Z,1.67
2024-05-09T12:20:38.512Z,2.00
2024-05-09T12:23:09.740Z,2.03
2024-05-09T12:25:38.093Z,2.70
2024-05-09T12:28:06.092Z,1.67
2024-05-09T12:30:38.042Z,2.28
2024-05-09T12:33:08.878Z,1.70
2024-05-09T12:35:36.294Z,1.58
2024-05-09T12:38:03.942Z,1.88
2024-05-09T12:40:35.929Z,2.15
2024-05-09T12:43:09.874Z,1.90
2024-05-09T12:45:38.278Z,1.77
2024-05-09T12:48:08.568Z,1.88
2024-05-09T12:50:36.331Z,1.80
2024-05-09T12:53:05.198Z,1.98
2024-05-09T12:55:40.879Z,2.58
2024-05-09T12:58:17.155Z,2.08
2024-05-09T13:00:45.263Z,1.65
2024-05-09T13:03:13.135Z,1.48
2024-05-09T13:05:46.632Z,1.83
2024-05-09T13:08:14.247Z,1.92
2024-05-09T13:10:41.626Z,1.60
2024-05-09T13:13:10.035Z,2.03
2024-05-09T13:15:37.526Z,1.60
2024-05-09T13:18:05.852Z,1.10
2024-05-09T13:20:35.347Z,1.73
2024-05-09T13:23:04.993Z,2.35
2024-05-09T13:25:34.590Z,1.50
2024-05-09T13:28:04.423Z,1.52
2024-05-09T13:30:39.256Z,2.03
2024-05-09T13:33:11.434Z,1.67
2024-05-09T13:35:41.304Z,1.75
2024-05-09T13:38:10.232Z,1.58
2024-05-09T13:40:37.479Z,1.98
2024-05-09T13:43:05.479Z,1.58
2024-05-09T13:45:33.285Z,1.80
2024-05-09T13:48:02.557Z,1.75
2024-05-09T13:50:34.514Z,1.67
2024-05-09T13:53:08.484Z,1.83
2024-05-09T13:55:39.475Z,2.47
2024-05-09T13:58:08.109Z,2.40
2024-05-09T14:03:06.137Z,2.00
2024-05-09T14:05:33.412Z,2.38
2024-05-09T14:08:01.184Z,2.90
2024-05-09T14:10:31.187Z,1.75
2024-05-09T14:13:01.142Z,1.80
2024-05-09T14:15:28.433Z,1.75
2024-05-09T14:17:55.887Z,1.85
2024-05-09T14:20:30.163Z,3.42
2024-05-09T14:23:00.702Z,2.88
2024-05-09T14:25:30.148Z,2.15
2024-05-09T14:27:58.020Z,3.00
2024-05-09T14:30:34.117Z,1.38
2024-05-09T14:33:06.275Z,2.28
2024-05-09T14:35:34.349Z,1.88
2024-05-09T14:38:01.898Z,1.77
2024-05-09T14:40:39.531Z,2.03
2024-05-09T14:43:14.615Z,1.90
2024-05-09T14:45:42.406Z,1.40
2024-05-09T14:48:10.791Z,1.55
2024-05-09T14:50:39.742Z,1.80
2024-05-09T14:53:09.171Z,1.90
2024-05-09T14:55:37.702Z,2.00
2024-05-09T14:58:09.724Z,1.90
2024-05-09T15:00:40.358Z,1.77
2024-05-09T15:03:10.797Z,1.52
2024-05-09T15:05:37.890Z,1.70
2024-05-09T15:08:06.322Z,1.30
2024-05-09T15:10:35.853Z,1.88
2024-05-09T15:13:05.835Z,1.90
2024-05-09T15:15:34.165Z,1.88
2024-05-09T15:18:01.826Z,1.70
2024-05-09T15:20:34.622Z,1.92
2024-05-09T15:23:04.964Z,1.98
2024-05-09T15:25:33.582Z,1.70
2024-05-09T15:28:01.393Z,1.95
2024-05-09T15:30:32.043Z,1.65
2024-05-09T15:33:03.363Z,1.95
2024-05-09T15:35:30.713Z,1.80
2024-05-09T15:37:58.188Z,1.63
2024-05-09T15:40:34.883Z,1.27
2024-05-09T15:43:07.283Z,1.70
2024-05-09T15:45:34.882Z,1.83
2024-05-09T15:48:03.130Z,1.92
2024-05-09T15:50:37.454Z,1.60
2024-05-09T15:53:09.370Z,1.65
2024-05-09T15:55:37.312Z,2.45
2024-05-09T15:58:05.466Z,2.30
2024-05-09T16:00:37.911Z,1.88
2024-05-09T16:03:12.730Z,1.70
2024-05-09T16:05:41.480Z,1.60
2024-05-09T16:08:09.261Z,1.70
2024-05-09T16:10:38.720Z,2.10
2024-05-09T16:13:06.720Z,1.95
2024-05-09T16:15:33.924Z,2.40
2024-05-09T16:18:01.539Z,1.83
2024-05-09T16:20:35.220Z,1.60
2024-05-09T16:23:08.138Z,2.60
2024-05-09T16:25:35.600Z,2.25
2024-05-09T16:28:09.759Z,2.17
2024-05-09T16:30:40.699Z,1.80
2024-05-09T16:33:09.122Z,2.40
2024-05-09T16:35:37.323Z,2.03
2024-05-09T16:38:05.984Z,2.15
2024-05-09T16:40:38.721Z,2.22
2024-05-09T16:43:09.814Z,2.13
2024-05-09T16:45:37.904Z,1.95
2024-05-09T16:48:06.763Z,2.55
2024-05-09T16:50:35.570Z,1.60
2024-05-09T16:53:04.991Z,2.20
2024-05-09T16:55:32.863Z,2.72
2024-05-09T16:58:00.561Z,2.15
2024-05-09T17:00:38.166Z,2.17
2024-05-09T17:03:11.224Z,1.92
2024-05-09T17:05:39.488Z,1.83
2024-05-09T17:08:07.439Z,1.95
2024-05-09T17:10:36.453Z,1.80
2024-05-09T17:13:06.236Z,1.73
2024-05-09T17:15:35.193Z,1.77
2024-05-09T17:18:03.016Z,1.77
2024-05-09T17:20:34.488Z,1.67
2024-05-09T17:23:05.512Z,1.75
2024-05-09T17:25:33.586Z,1.75
2024-05-09T17:28:06.687Z,1.70
2024-05-09T17:30:37.107Z,1.67
2024-05-09T17:33:07.794Z,1.58
2024-05-09T17:35:36.236Z,1.40
2024-05-09T17:38:05.180Z,1.30
2024-05-09T17:40:35.859Z,1.52
2024-05-09T17:43:06.914Z,1.40
2024-05-09T17:45:37.802Z,2.10
2024-05-09T17:48:06.001Z,2.20
2024-05-09T17:50:36.178Z,1.70
2024-05-09T17:53:05.965Z,1.73
2024-05-09T17:55:33.525Z,1.92
2024-05-09T17:58:01.439Z,1.70
2024-05-09T18:00:36.864Z,1.55
2024-05-09T18:03:08.654Z,1.80
2024-05-09T18:05:37.100Z,1.65
2024-05-09T18:08:08.818Z,2.08
2024-05-09T18:10:38.858Z,2.03
2024-05-09T18:13:08.711Z,1.95
2024-05-09T18:15:36.542Z,2.20
2024-05-09T18:18:04.691Z,1.95
2024-05-09T18:20:40.556Z,2.13
2024-05-09T18:23:13.237Z,1.95
2024-05-09T18:25:40.929Z,1.88
2024-05-09T18:28:08.530Z,2.45
2024-05-09T18:30:37.157Z,2.05
2024-05-09T18:33:09.771Z,2.33
2024-05-09T18:35:37.139Z,2.53
2024-05-09T18:38:05.617Z,2.42
2024-05-09T18:40:36.175Z,2.45
2024-05-09T18:43:07.356Z,2.15
2024-05-09T18:45:39.299Z,2.40
2024-05-09T18:48:08.612Z,2.67
2024-05-09T18:50:39.412Z,2.63
2024-05-09T18:53:12.734Z,2.33
2024-05-09T18:55:41.465Z,2.95
2024-05-09T18:58:08.963Z,2.95
2024-05-09T19:00:39.066Z,3.30
2024-05-09T19:03:11.570Z,2.75
2024-05-09T19:05:42.346Z,3.72
2024-05-09T19:08:11.264Z,3.42
2024-05-09T19:10:38.836Z,3.40
2024-05-09T19:13:11.043Z,3.42
2024-05-09T19:15:40.847Z,3.53
2024-05-09T19:18:09.496Z,3.80
2024-05-09T19:20:37.457Z,3.45
2024-05-09T19:23:06.172Z,3.17
2024-05-09T19:25:33.690Z,3.83
2024-05-09T19:28:01.439Z,3.95
2024-05-09T19:30:37.114Z,3.80
2024-05-09T19:33:09.200Z,3.22
2024-05-09T19:35:36.963Z,3.55
2024-05-09T19:38:05.358Z,3.58
2024-05-09T19:40:34.124Z,4.18
2024-05-09T19:43:03.477Z,3.67
2024-05-09T19:45:33.204Z,3.63
2024-05-09T19:48:01.481Z,3.92
2024-05-09T19:50:37.022Z,3.83
2024-05-09T19:53:10.479Z,3.72
2024-05-09T19:55:38.195Z,3.38
2024-05-09T19:58:09.020Z,3.60
2024-05-09T20:00:39.458Z,3.78
2024-05-09T20:03:12.034Z,3.20
2024-05-09T20:05:40.361Z,3.28
2024-05-09T20:08:08.154Z,3.15
2024-05-09T20:10:36.413Z,3.85
2024-05-09T20:13:06.446Z,3.50
2024-05-09T20:15:35.225Z,3.80
2024-05-09T20:18:04.090Z,3.55
2024-05-09T20:20:37.128Z,3.47
2024-05-09T20:23:09.442Z,3.42
2024-05-09T20:25:36.780Z,3.35
2024-05-09T20:28:05.355Z,3.58
2024-05-09T20:30:36.334Z,2.95
2024-05-09T20:33:05.934Z,3.40
2024-05-09T20:35:34.568Z,4.03
2024-05-09T20:38:03.418Z,3.50
2024-05-09T20:40:35.176Z,3.03
2024-05-09T20:43:06.679Z,3.17
2024-05-09T20:45:34.408Z,3.63
2024-05-09T20:48:02.411Z,3.67
2024-05-09T20:50:37.202Z,3.47
2024-05-09T20:53:12.736Z,4.40
2024-05-09T20:55:41.030Z,3.30
2024-05-09T20:58:09.468Z,3.30
2024-05-09T21:00:40.549Z,3.30
2024-05-09T21:03:12.548Z,3.05
2024-05-09T21:05:40.522Z,3.72
2024-05-09T21:08:08.420Z,4.05
2024-05-09T21:10:36.263Z,4.20
2024-05-09T21:13:04.747Z,3.35
2024-05-09T21:15:32.328Z,3.55
2024-05-09T21:17:59.965Z,3.63
2024-05-09T21:22:57.876Z,3.42
2024-05-09T21:25:25.053Z,3.65
2024-05-09T21:27:52.710Z,3.83
2024-05-09T21:30:31.435Z,3.63
2024-05-09T21:33:09.630Z,3.60
2024-05-09T21:35:38.090Z,2.65
2024-05-09T21:38:05.977Z,3.50
2024-05-09T21:40:35.465Z,3.03
2024-05-09T21:43:05.138Z,3.65
2024-05-09T21:45:32.599Z,3.55
2024-05-09T21:48:00.241Z,3.90
2024-05-09T21:50:36.309Z,3.20
2024-05-09T21:53:07.827Z,3.17
2024-05-09T21:55:34.988Z,3.67
2024-05-09T21:58:03.058Z,3.92
2024-05-09T22:00:36.333Z,3.28
2024-05-09T22:03:09.718Z,3.63
2024-05-09T22:05:39.232Z,3.78
2024-05-09T22:08:07.406Z,3.55
2024-05-09T22:10:36.417Z,4.00
2024-05-09T22:13:06.051Z,3.40
2024-05-09T22:15:38.094Z,3.15
2024-05-09T22:18:08.436Z,3.70
2024-05-09T22:20:38.984Z,3.95
2024-05-09T22:23:08.570Z,3.67
2024-05-09T22:25:36.588Z,3.50
2024-05-09T22:28:04.547Z,3.30
2024-05-09T22:30:36.472Z,3.58
2024-05-09T22:35:34.957Z,3.30
2024-05-09T22:38:03.113Z,3.92
2024-05-09T22:40:38.981Z,3.30
2024-05-09T22:43:17.015Z,3.53
2024-05-09T22:45:44.440Z,4.70
2024-05-09T22:48:12.075Z,4.10
2024-05-09T22:50:39.829Z,3.83
2024-05-09T22:53:07.261Z,3.92
2024-05-09T22:55:34.325Z,4.55
2024-05-09T22:58:02.018Z,4.00
2024-05-09T23:00:32.043Z,4.10
2024-05-09T23:03:00.986Z,4.78
2024-05-09T23:05:28.768Z,4.32
2024-05-09T23:07:56.278Z,4.25
2024-05-09T23:10:31.128Z,4.25
2024-05-09T23:13:03.255Z,4.28
2024-05-09T23:15:30.558Z,4.88
2024-05-09T23:17:58.540Z,4.50
2024-05-09T23:20:35.971Z,4.35
2024-05-09T23:23:07.156Z,4.60
2024-05-09T23:25:34.730Z,3.63
2024-05-09T23:28:02.543Z,4.10
2024-05-09T23:30:37.316Z,4.15
2024-05-09T23:33:09.122Z,4.22
2024-05-09T23:35:36.395Z,4.22
2024-05-09T23:38:04.160Z,4.85
2024-05-09T23:40:38.439Z,4.57
2024-05-09T23:43:11.894Z,4.72
2024-05-09T23:45:39.724Z,4.68
2024-05-09T23:48:07.973Z,4.28
2024-05-09T23:50:37.867Z,4.35
2024-05-09T23:53:08.347Z,4.00
2024-05-09T23:55:36.592Z,4.43
2024-05-09T23:58:04.329Z,4.40
